Billings, MT

12:26 PM MDT on June 02, 2015 (GMT -0600)
Downtown Billings | | Change Station
CLOSE
Current Station
Personal Weather Station
Location: Billings, MT
Elevation: 3127 ft
Nearby Weather Stations

Elev 3127 ft 45.78 °N, 108.50 °W | Updated 59 minutes ago

Partly Cloudy
Partly Cloudy
71.6 °F
Feels Like 76 °F
N
3.4
Wind Variable Wind from North
Gusts 6.7 mph

Today
High -- | Low -- °F
--% Chance of Precip.
Yesterday
High -- | Low -- °F
Precip. -- in
5:27 AM 8:57 PM
Full, 100% visible
Pressure 29.83 in
Visibility 10.0 miles
Clouds Scattered Clouds 3000 ft
Heat Index 76 °F
Dew Point 56 °F
Humidity 58%
Rainfall -999.00 in
Snow Depth Not available.
UV 8 out of 12
Pollen 6.40 out of 12
Air Quality Not available.
Flu Activity Sporadic
METAR KBIL 021753Z 33006KT 10SM SCT030 21/11 A2990 RMK AO2 SLP101 CB DSNT W NW T02110111 10211 20117 58003

More Conditions Fewer Conditions

Pressure 29.83 in
Visibility 10.0 miles
Clouds Scattered Clouds 3000 ft
Heat Index 76 °F
Dew Point 56 °F
Humidity 58%
Rainfall -999.00 in
Snow Depth Not available.
UV 8 out of 12
Pollen 6.40 out of 12
Air Quality Not available.
Flu Activity Sporadic
METAR KBIL 021753Z 33006KT 10SM SCT030 21/11 A2990 RMK AO2 SLP101 CB DSNT W NW T02110111 10211 20117 58003

More Conditions Fewer Conditions

10-Day Weather Forecast

Almanac

Astronomy

Jun. 02, 2015 Rise Set
Actual Time
Civil Twilight
Nautical Twilight
Astronomical Twilight
Moon
Length of Visible Light
Length of Day
Tomorrow will be .
, % of the Moon is Illuminated

Today's Extremes

State Highs State Lows

Community

WunderPhotos

Upload Photos

1,825,995 photos uploaded!

WunderBlogs® & News

Nearby

Air Quality

  Air Quality AQ Index Pollutant
Not available.

Snow Depth

Station Depth Elevation

Earthquake Activity

City Distance Mag. Time & Date
Minimum magnitude displayed is 2.5.

Coastal Water Temperatures

Place Temperature

Stations

Nearby Weather Stations

Station Location Temp. Windchill Dew Point Humidity Wind Precip. Elev Updated Type